Time;durP1;ratioP1;P1;durP2;ratioP2;P2;SDS_P1;SDS_P2;PMS_P1;PMS_P2;Temp;Humidity;BMP_temperature;BMP_pressure;BME280_temperature;BME280_humidity;BME280_pressure;Samples;Min_cycle;Max_cycle;Signal;HPM_P1;HPM_P2
2022/02/04 00:20:14;;;;;;;2.50;1.00;;;;;;;;;;4992860;28;20038;-68
2022/02/04 00:20:48;;;;;;;2.78;1.08;;;;;;;;;;4993148;28;20042;-72
2022/02/04 00:23:20;;;;;;;3.70;1.23;;;;;;;;;;4968640;28;20042;-69
2022/02/04 00:25:56;;;;;;;1.00;0.90;;;;;;;;;;4996712;28;20034;-73
2022/02/04 00:31:32;;;;;;;2.63;1.20;;;;;;;;;;4997193;28;20046;-72
2022/02/04 00:33:51;;;;;;;1.75;1.15;;;;;;;;;;4993315;28;20078;-72
2022/02/04 00:36:30;;;;;;;2.45;1.23;;;;;;;;;;4996480;28;20046;-71
2022/02/04 00:39:00;;;;;;;3.28;1.02;;;;;;;;;;4996578;28;20069;-71
2022/02/04 00:41:33;;;;;;;2.20;1.05;;;;;;;;;;4996794;28;20070;-69
2022/02/04 00:44:02;;;;;;;4.53;1.40;;;;;;;;;;4996626;28;20204;-72
2022/02/04 00:49:20;;;;;;;1.63;1.08;;;;;;;;;;4997228;28;20092;-72
2022/02/04 01:25:52;;;;;;;1.95;1.00;;;;;;;;;;4996400;28;20054;-68
2022/02/04 01:27:12;;;;;;;2.15;1.10;;;;;;;;;;4995564;28;20048;-68
2022/02/04 01:29:54;;;;;;;3.17;1.00;;;;;;;;;;4995744;28;20441;-72
2022/02/04 01:32:21;;;;;;;2.33;0.90;;;;;;;;;;4995669;28;20066;-71
2022/02/04 01:34:49;;;;;;;3.45;0.80;;;;;;;;;;4996112;28;20058;-72
2022/02/04 01:37:16;;;;;;;1.65;0.90;;;;;;;;;;4995686;28;20410;-68
2022/02/04 01:39:44;;;;;;;1.92;0.95;;;;;;;;;;4996026;28;20418;-72
2022/02/04 01:42:12;;;;;;;1.75;0.80;;;;;;;;;;4995830;28;20042;-68
2022/02/04 01:44:39;;;;;;;3.05;1.10;;;;;;;;;;4995655;28;20049;-72
2022/02/04 01:47:07;;;;;;;2.33;1.02;;;;;;;;;;4978402;28;20038;-70
2022/02/04 01:49:36;;;;;;;1.13;1.00;;;;;;;;;;4995317;28;20050;-71
2022/02/04 01:52:04;;;;;;;2.00;1.10;;;;;;;;;;4995564;28;20129;-68
2022/02/04 01:54:32;;;;;;;2.25;1.15;;;;;;;;;;4978328;28;20398;-73
2022/02/04 01:56:59;;;;;;;1.20;1.10;;;;;;;;;;4999775;28;20519;-70
2022/02/04 01:59:27;;;;;;;3.90;1.48;;;;;;;;;;4997254;28;20049;-68
2022/02/04 02:01:54;;;;;;;1.50;1.40;;;;;;;;;;4997630;28;20034;-72
2022/02/04 02:04:22;;;;;;;1.75;1.23;;;;;;;;;;5001007;28;20057;-72
2022/02/04 02:06:54;;;;;;;1.70;1.20;;;;;;;;;;5034858;28;20133;-71
2022/02/04 02:09:27;;;;;;;3.03;1.33;;;;;;;;;;5034895;28;20413;-73
2022/02/04 02:11:58;;;;;;;3.88;1.40;;;;;;;;;;5034746;28;20041;-71
2022/02/04 02:14:28;;;;;;;1.55;0.93;;;;;;;;;;5034188;28;20071;-70
2022/02/04 02:44:05;;;;;;;2.35;1.00;;;;;;;;;;5033690;28;20116;-68
2022/02/04 02:57:28;;;;;;;7.82;1.80;;;;;;;;;;5033729;28;20048;-68
2022/02/04 03:02:36;;;;;;;4.47;1.63;;;;;;;;;;5033329;28;20109;-72
2022/02/04 03:05:03;;;;;;;1.55;0.93;;;;;;;;;;5024610;28;20049;-72
2022/02/04 03:07:31;;;;;;;2.58;1.40;;;;;;;;;;5013801;28;20393;-73
2022/02/04 03:09:59;;;;;;;4.72;1.25;;;;;;;;;;5013990;28;20048;-72
2022/02/04 03:12:28;;;;;;;2.15;1.35;;;;;;;;;;5013665;28;20044;-72
2022/02/04 03:14:57;;;;;;;1.13;0.88;;;;;;;;;;5013503;28;20045;-68
2022/02/04 03:17:24;;;;;;;1.02;0.80;;;;;;;;;;5013526;28;20048;-71
2022/02/04 03:19:56;;;;;;;1.23;0.93;;;;;;;;;;5013480;28;20521;-72
2022/02/04 03:22:24;;;;;;;1.00;0.70;;;;;;;;;;5013850;28;20125;-71
2022/02/04 03:24:59;;;;;;;1.95;0.80;;;;;;;;;;5013347;28;20038;-68
2022/02/04 03:27:34;;;;;;;3.75;0.80;;;;;;;;;;5013092;28;20034;-72
2022/02/04 03:30:10;;;;;;;3.65;0.80;;;;;;;;;;5013294;28;20042;-68
2022/02/04 03:32:43;;;;;;;1.95;0.77;;;;;;;;;;4996205;28;20053;-72
2022/02/04 03:35:13;;;;;;;1.93;0.87;;;;;;;;;;4996039;28;20116;-71
2022/02/04 03:37:40;;;;;;;3.33;0.98;;;;;;;;;;5013240;28;20042;-72
2022/02/04 03:40:08;;;;;;;2.28;1.38;;;;;;;;;;5012696;28;20401;-68
2022/02/04 03:42:35;;;;;;;6.75;4.20;;;;;;;;;;5013200;28;20049;-72
2022/02/04 03:45:03;;;;;;;5.65;2.45;;;;;;;;;;5013308;28;20038;-71
2022/02/04 03:47:31;;;;;;;2.92;1.45;;;;;;;;;;5013712;28;20041;-71
2022/02/04 03:49:59;;;;;;;3.58;1.60;;;;;;;;;;5013316;28;20053;-68
2022/02/04 03:52:27;;;;;;;2.45;0.88;;;;;;;;;;5012996;28;20121;-70
2022/02/04 03:54:54;;;;;;;1.77;1.30;;;;;;;;;;5012985;28;20091;-70
2022/02/04 03:57:21;;;;;;;3.40;1.35;;;;;;;;;;4994949;28;20064;-72
2022/02/04 03:59:49;;;;;;;5.63;1.40;;;;;;;;;;5012593;28;20073;-71
2022/02/04 04:02:16;;;;;;;2.33;1.40;;;;;;;;;;5012984;28;20096;-68
2022/02/04 04:04:44;;;;;;;2.58;1.23;;;;;;;;;;5004777;28;20053;-70
2022/02/04 04:07:12;;;;;;;3.88;1.50;;;;;;;;;;5032628;28;20382;-71
2022/02/04 04:09:45;;;;;;;1.67;1.38;;;;;;;;;;5032729;28;20038;-68
2022/02/04 04:12:13;;;;;;;2.00;1.25;;;;;;;;;;5031214;28;20044;-72
2022/02/04 04:14:40;;;;;;;3.05;1.55;;;;;;;;;;5031029;28;20041;-71
2022/02/04 04:17:08;;;;;;;4.40;1.20;;;;;;;;;;5032395;28;20060;-68
2022/02/04 04:19:35;;;;;;;1.63;1.40;;;;;;;;;;5032314;28;20053;-71
2022/02/04 04:22:03;;;;;;;3.45;1.52;;;;;;;;;;5031352;28;20048;-68
2022/02/04 04:24:30;;;;;;;1.33;1.10;;;;;;;;;;5032769;28;20038;-71
2022/02/04 04:26:58;;;;;;;2.28;1.08;;;;;;;;;;5032169;28;20038;-68
2022/02/04 04:29:25;;;;;;;1.95;0.88;;;;;;;;;;5032518;28;20428;-72
2022/02/04 04:31:53;;;;;;;2.30;1.30;;;;;;;;;;5032575;28;20038;-68
2022/02/04 04:34:20;;;;;;;1.13;1.00;;;;;;;;;;5031375;28;20049;-68
2022/02/04 04:36:47;;;;;;;2.97;1.30;;;;;;;;;;5032076;28;20048;-70
2022/02/04 04:42:11;;;;;;;2.25;0.98;;;;;;;;;;5032466;28;20511;-71
2022/02/04 04:45:05;;;;;;;1.40;0.88;;;;;;;;;;5032359;28;20572;-68
2022/02/04 05:31:19;;;;;;;3.72;1.50;;;;;;;;;;5014903;28;20042;-70
2022/02/04 05:33:46;;;;;;;4.10;1.60;;;;;;;;;;5015424;28;20044;-71
2022/02/04 05:36:14;;;;;;;4.53;1.70;;;;;;;;;;5015272;28;20125;-72
2022/02/04 05:38:42;;;;;;;3.53;1.63;;;;;;;;;;4997631;28;20221;-72
2022/02/04 05:41:11;;;;;;;2.60;1.83;;;;;;;;;;5014929;28;20038;-68
2022/02/04 05:43:41;;;;;;;2.33;1.75;;;;;;;;;;5015309;28;20045;-68
2022/02/04 05:46:16;;;;;;;4.75;1.80;;;;;;;;;;5015262;28;20489;-68
2022/02/04 05:48:57;;;;;;;3.03;1.75;;;;;;;;;;5012432;28;20072;-71
2022/02/04 05:59:31;;;;;;;1.70;0.98;;;;;;;;;;4975270;28;20065;-72
2022/02/04 06:23:14;;;;;;;4.75;2.20;;;;;;;;;;5017897;28;20052;-70
2022/02/04 06:25:43;;;;;;;9.35;3.70;;;;;;;;;;5012783;28;20319;-71
2022/02/04 06:28:11;;;;;;;3.70;1.73;;;;;;;;;;5013148;28;20033;-73
2022/02/04 06:30:40;;;;;;;4.97;2.03;;;;;;;;;;5014212;28;20092;-70
2022/02/04 06:33:07;;;;;;;3.65;2.00;;;;;;;;;;5014077;28;20042;-71
2022/02/04 06:35:35;;;;;;;9.20;2.80;;;;;;;;;;5014090;28;20042;-71
2022/02/04 06:38:03;;;;;;;6.05;3.33;;;;;;;;;;4996292;28;20104;-71
2022/02/04 06:40:30;;;;;;;8.48;4.35;;;;;;;;;;5013430;28;20133;-71
2022/02/04 06:42:58;;;;;;;7.05;2.63;;;;;;;;;;5014049;28;20052;-71
2022/02/04 06:45:26;;;;;;;8.23;5.03;;;;;;;;;;5013532;28;20046;-72
2022/02/04 06:47:53;;;;;;;4.82;2.88;;;;;;;;;;5013975;28;20038;-72
2022/02/04 06:50:22;;;;;;;11.18;3.20;;;;;;;;;;5013710;28;20442;-70
2022/02/04 06:52:53;;;;;;;4.45;2.72;;;;;;;;;;5013916;28;20042;-70
2022/02/04 06:55:22;;;;;;;6.03;3.35;;;;;;;;;;5014165;28;20038;-72
2022/02/04 06:57:53;;;;;;;4.55;2.25;;;;;;;;;;4996556;28;20038;-72
2022/02/04 07:00:25;;;;;;;5.30;2.20;;;;;;;;;;5013661;28;20064;-72
2022/02/04 07:02:53;;;;;;;5.60;1.95;;;;;;;;;;5012183;28;20041;-70
2022/02/04 07:05:25;;;;;;;4.85;2.03;;;;;;;;;;5024890;28;20060;-71
2022/02/04 07:08:43;;;;;;;13.55;2.20;;;;;;;;;;5033732;28;20041;-71
2022/02/04 07:11:04;;;;;;;2.08;1.23;;;;;;;;;;5028124;28;20428;-72
2022/02/04 07:13:48;;;;;;;2.97;1.50;;;;;;;;;;5033698;28;20072;-70
2022/02/04 07:21:44;;;;;;;6.55;3.85;;;;;;;;;;5033645;28;20041;-71
2022/02/04 07:24:12;;;;;;;18.45;8.70;;;;;;;;;;5030560;28;20072;-71
2022/02/04 07:26:40;;;;;;;13.50;7.45;;;;;;;;;;5033372;28;20109;-72
2022/02/04 07:29:12;;;;;;;14.73;6.95;;;;;;;;;;5030093;28;20120;-71
2022/02/04 07:31:41;;;;;;;12.00;6.28;;;;;;;;;;5033436;28;20045;-73
2022/02/04 07:42:25;;;;;;;6.75;3.55;;;;;;;;;;5031939;28;20049;-70
2022/02/04 07:44:54;;;;;;;4.78;2.75;;;;;;;;;;5031776;28;20041;-71
2022/02/04 07:47:21;;;;;;;4.15;2.53;;;;;;;;;;5032679;28;20045;-72
2022/02/04 07:49:52;;;;;;;7.60;2.85;;;;;;;;;;5031630;28;20485;-72
2022/02/04 07:52:20;;;;;;;6.57;3.30;;;;;;;;;;5014929;28;20115;-71
2022/02/04 07:54:48;;;;;;;10.00;3.42;;;;;;;;;;5015040;28;20121;-71
2022/02/04 07:57:16;;;;;;;6.05;3.20;;;;;;;;;;5031594;28;20061;-70
2022/02/04 07:59:47;;;;;;;7.05;2.50;;;;;;;;;;5032565;28;20045;-70
2022/02/04 08:02:14;;;;;;;6.03;2.28;;;;;;;;;;5029772;28;20050;-73
2022/02/04 08:04:46;;;;;;;4.90;2.10;;;;;;;;;;5015848;28;20056;-72
2022/02/04 08:07:16;;;;;;;8.98;1.80;;;;;;;;;;4993483;28;20422;-74
2022/02/04 08:12:35;;;;;;;8.32;2.50;;;;;;;;;;5008658;28;20046;-70
2022/02/04 08:18:33;;;;;;;6.55;2.60;;;;;;;;;;5009486;28;20052;-71
2022/02/04 08:20:52;;;;;;;3.42;2.10;;;;;;;;;;5005419;28;20054;-71
2022/02/04 09:02:15;;;;;;;4.93;2.05;;;;;;;;;;5015816;28;20053;-73
2022/02/04 09:04:48;;;;;;;6.75;2.42;;;;;;;;;;5005552;28;20077;-71
2022/02/04 09:07:18;;;;;;;4.95;2.17;;;;;;;;;;5035890;28;20073;-71
2022/02/04 09:18:32;;;;;;;3.03;1.42;;;;;;;;;;5035619;28;20045;-73
2022/02/04 09:21:08;;;;;;;4.28;1.30;;;;;;;;;;5035667;28;20042;-72
2022/02/04 09:23:32;;;;;;;5.38;1.25;;;;;;;;;;5035948;28;20487;-71
2022/02/04 09:26:05;;;;;;;2.70;1.55;;;;;;;;;;5035222;28;20045;-71
2022/02/04 09:28:33;;;;;;;2.25;1.40;;;;;;;;;;5035393;28;20044;-71
2022/02/04 09:31:03;;;;;;;3.67;1.40;;;;;;;;;;5035496;28;20132;-71
2022/02/04 09:33:31;;;;;;;1.75;1.40;;;;;;;;;;5035117;28;20042;-73
2022/02/04 09:36:01;;;;;;;2.75;1.23;;;;;;;;;;5035466;28;20048;-71
2022/02/04 09:38:29;;;;;;;3.55;1.20;;;;;;;;;;5035356;28;20041;-71
2022/02/04 09:40:56;;;;;;;1.50;1.27;;;;;;;;;;5034839;28;20042;-71
2022/02/04 09:43:24;;;;;;;2.30;1.25;;;;;;;;;;5035091;28;20045;-72
2022/02/04 09:45:52;;;;;;;5.68;1.60;;;;;;;;;;5034771;28;20045;-71
2022/02/04 09:48:19;;;;;;;3.15;1.10;;;;;;;;;;5034510;28;20041;-71
2022/02/04 09:50:51;;;;;;;6.05;1.40;;;;;;;;;;5035090;28;20045;-73
2022/02/04 10:05:02;;;;;;;2.85;1.65;;;;;;;;;;5113639;23;20463;-73
2022/02/04 10:07:52;;;;;;;2.67;1.20;;;;;;;;;;5033767;28;20129;-71
2022/02/04 10:15:48;;;;;;;3.88;2.08;;;;;;;;;;5034552;28;20062;-71
2022/02/04 10:21:07;;;;;;;3.63;2.63;;;;;;;;;;5034117;28;20124;-71
2022/02/04 10:23:55;;;;;;;5.32;1.98;;;;;;;;;;5016611;28;20049;-71
2022/02/04 10:26:25;;;;;;;1.92;1.63;;;;;;;;;;5033662;28;20037;-71
2022/02/04 10:28:53;;;;;;;3.33;1.92;;;;;;;;;;5033542;28;20068;-73
2022/02/04 10:31:25;;;;;;;4.78;1.70;;;;;;;;;;5033959;28;20041;-71
2022/02/04 10:34:00;;;;;;;2.97;1.45;;;;;;;;;;5033849;28;20044;-71
2022/02/04 10:39:28;;;;;;;3.13;1.17;;;;;;;;;;5033160;28;20049;-71
2022/02/04 10:42:05;;;;;;;3.28;1.17;;;;;;;;;;5015954;28;20132;-71
2022/02/04 10:44:44;;;;;;;1.88;0.98;;;;;;;;;;5033259;28;20116;-73
2022/02/04 10:47:11;;;;;;;1.23;1.08;;;;;;;;;;5033514;28;20050;-71
2022/02/04 10:50:03;;;;;;;3.67;0.85;;;;;;;;;;5033339;28;20067;-71
2022/02/04 10:53:09;;;;;;;1.05;0.80;;;;;;;;;;5032163;28;20077;-73
2022/02/04 11:00:27;;;;;;;3.30;1.10;;;;;;;;;;5033180;28;20049;-71
2022/02/04 11:03:00;;;;;;;1.00;0.90;;;;;;;;;;5015841;28;20049;-71
2022/02/04 11:36:05;;;;;;;4.50;1.50;;;;;;;;;;5032433;28;20052;-73
2022/02/04 11:54:54;;;;;;;3.55;1.60;;;;;;;;;;5017114;28;20034;-70
2022/02/04 11:57:23;;;;;;;6.25;2.03;;;;;;;;;;5012941;28;20050;-70
2022/02/04 11:59:50;;;;;;;4.35;1.45;;;;;;;;;;4994625;28;20137;-71
2022/02/04 12:02:28;;;;;;;6.50;1.80;;;;;;;;;;5019889;28;20069;-71
2022/02/04 12:05:08;;;;;;;4.85;1.45;;;;;;;;;;5021925;28;20050;-72
2022/02/04 12:07:37;;;;;;;4.05;1.70;;;;;;;;;;5004776;28;20034;-71
2022/02/04 12:10:17;;;;;;;6.25;2.00;;;;;;;;;;5020628;28;20038;-70
2022/02/04 12:13:00;;;;;;;5.07;1.77;;;;;;;;;;5020745;28;20408;-70
2022/02/04 12:15:49;;;;;;;4.65;1.92;;;;;;;;;;5020508;28;20046;-70
2022/02/04 12:18:18;;;;;;;4.25;2.00;;;;;;;;;;5021236;28;20164;-69
2022/02/04 12:23:29;;;;;;;4.88;1.77;;;;;;;;;;5027458;28;20069;-69
2022/02/04 12:26:16;;;;;;;5.63;2.03;;;;;;;;;;5026776;28;20116;-70
2022/02/04 12:29:01;;;;;;;3.80;1.45;;;;;;;;;;5005430;28;20053;-70
2022/02/04 12:31:32;;;;;;;5.30;3.03;;;;;;;;;;5032279;28;20029;-70
2022/02/04 12:34:10;;;;;;;5.93;1.80;;;;;;;;;;5028521;28;20405;-70
2022/02/04 12:36:39;;;;;;;6.13;1.80;;;;;;;;;;5027605;28;20065;-70
2022/02/04 12:39:12;;;;;;;5.85;1.90;;;;;;;;;;5030156;28;20091;-70
2022/02/04 12:41:40;;;;;;;6.93;2.30;;;;;;;;;;5029467;28;20494;-70
2022/02/04 12:44:12;;;;;;;3.40;1.80;;;;;;;;;;5033371;28;20045;-70
2022/02/04 12:46:44;;;;;;;4.28;1.70;;;;;;;;;;5035663;28;20049;-70
2022/02/04 12:49:13;;;;;;;5.75;1.77;;;;;;;;;;5035538;28;20516;-71
2022/02/04 12:52:25;;;;;;;5.35;1.90;;;;;;;;;;5035678;28;20053;-69
2022/02/04 12:54:42;;;;;;;3.50;1.70;;;;;;;;;;5031362;28;20482;-70
2022/02/04 13:08:23;;;;;;;11.07;1.92;;;;;;;;;;5025645;28;20052;-70
2022/02/04 13:11:00;;;;;;;13.82;2.08;;;;;;;;;;5027740;28;20033;-70
2022/02/04 13:13:35;;;;;;;6.50;2.10;;;;;;;;;;5022603;28;20109;-70
2022/02/04 13:16:05;;;;;;;5.03;2.13;;;;;;;;;;5024022;28;20044;-70
2022/02/04 13:18:34;;;;;;;6.47;1.70;;;;;;;;;;5006719;28;20046;-69
2022/02/04 13:21:02;;;;;;;6.07;1.98;;;;;;;;;;5022431;28;20042;-70
2022/02/04 13:23:31;;;;;;;5.20;1.80;;;;;;;;;;5006624;28;20100;-70
2022/02/04 13:26:03;;;;;;;5.10;1.70;;;;;;;;;;5023419;28;20037;-70
2022/02/04 13:28:37;;;;;;;4.35;1.55;;;;;;;;;;5022912;28;20042;-69
2022/02/04 13:31:11;;;;;;;6.05;2.17;;;;;;;;;;5023789;28;20118;-69
2022/02/04 13:33:41;;;;;;;4.15;1.70;;;;;;;;;;5023026;28;20034;-71
2022/02/04 13:41:31;;;;;;;7.93;1.60;;;;;;;;;;5023130;28;20481;-68
2022/02/04 13:44:38;;;;;;;5.85;1.70;;;;;;;;;;5023165;28;20046;-68
2022/02/04 13:47:19;;;;;;;5.35;1.60;;;;;;;;;;5022984;28;20512;-70
2022/02/04 13:50:09;;;;;;;7.57;2.10;;;;;;;;;;5023573;28;20042;-70
2022/02/04 13:57:47;;;;;;;5.05;1.70;;;;;;;;;;5023236;28;20139;-69
2022/02/04 14:00:43;;;;;;;4.80;1.65;;;;;;;;;;5008319;28;20052;-69
2022/02/04 14:03:25;;;;;;;4.15;2.17;;;;;;;;;;5006200;28;20046;-70
2022/02/04 14:06:06;;;;;;;6.65;1.80;;;;;;;;;;4965627;28;1179757;-71
2022/02/04 14:08:47;;;;;;;8.88;2.00;;;;;;;;;;5024330;28;20041;-71
2022/02/04 14:11:44;;;;;;;8.93;1.95;;;;;;;;;;5009306;28;20136;-71
2022/02/04 14:14:22;;;;;;;4.35;1.80;;;;;;;;;;5024084;28;20053;-70
2022/02/04 14:16:53;;;;;;;7.30;2.25;;;;;;;;;;5005143;28;20038;-70
2022/02/04 14:19:23;;;;;;;8.52;1.85;;;;;;;;;;5025446;28;20112;-70
2022/02/04 14:21:51;;;;;;;7.60;1.90;;;;;;;;;;5032462;28;20575;-71
2022/02/04 14:24:21;;;;;;;10.07;2.45;;;;;;;;;;5030610;28;20053;-70
2022/02/04 14:26:51;;;;;;;9.02;1.90;;;;;;;;;;5034091;28;20572;-70
2022/02/04 14:32:16;;;;;;;3.88;1.40;;;;;;;;;;5032940;28;20112;-70
2022/02/04 14:34:56;;;;;;;9.52;1.90;;;;;;;;;;5030165;28;20037;-70
2022/02/04 15:01:55;;;;;;;12.55;2.15;;;;;;;;;;5015257;28;20088;-69
2022/02/04 15:04:40;;;;;;;14.27;2.08;;;;;;;;;;5032855;28;20492;-69
2022/02/04 15:07:10;;;;;;;10.68;2.30;;;;;;;;;;4996932;28;20132;-69
2022/02/04 15:09:42;;;;;;;4.93;1.85;;;;;;;;;;5013979;28;20553;-70
2022/02/04 15:12:10;;;;;;;15.52;2.25;;;;;;;;;;5013887;28;20041;-70
2022/02/04 15:14:38;;;;;;;5.43;1.67;;;;;;;;;;5014028;28;20045;-71
2022/02/04 15:17:06;;;;;;;10.68;2.40;;;;;;;;;;5013421;28;20049;-70
2022/02/04 15:19:34;;;;;;;7.88;1.95;;;;;;;;;;5013569;28;20073;-70
2022/02/04 15:22:06;;;;;;;8.27;1.80;;;;;;;;;;5028579;28;20121;-69
2022/02/04 15:24:34;;;;;;;6.17;2.20;;;;;;;;;;5033101;28;20350;-69
2022/02/04 15:27:06;;;;;;;9.98;2.20;;;;;;;;;;5014350;28;20037;-70
2022/02/04 15:29:38;;;;;;;8.70;1.83;;;;;;;;;;5031760;28;20366;-70
2022/02/04 15:32:06;;;;;;;7.45;1.73;;;;;;;;;;5032873;28;20053;-70
2022/02/04 15:34:34;;;;;;;16.30;2.20;;;;;;;;;;5033452;28;20033;-70
2022/02/04 15:37:02;;;;;;;8.63;2.20;;;;;;;;;;5033022;28;20033;-70
2022/02/04 15:39:30;;;;;;;3.70;1.63;;;;;;;;;;5015302;28;20041;-70
2022/02/04 15:42:07;;;;;;;15.40;3.05;;;;;;;;;;5029800;28;20496;-70
2022/02/04 15:44:43;;;;;;;15.32;2.92;;;;;;;;;;5027721;28;20141;-69
2022/02/04 15:47:30;;;;;;;10.18;2.90;;;;;;;;;;5032191;28;20037;-69
2022/02/04 16:02:41;;;;;;;14.82;3.03;;;;;;;;;;5030585;28;20348;-70
2022/02/04 16:05:12;;;;;;;26.20;2.20;;;;;;;;;;5031675;28;20061;-70
2022/02/04 16:07:41;;;;;;;21.77;2.73;;;;;;;;;;5024682;28;20092;-69
2022/02/04 16:13:06;;;;;;;16.02;2.92;;;;;;;;;;5023011;28;20034;-72
2022/02/04 16:15:53;;;;;;;19.95;3.15;;;;;;;;;;5018898;28;20389;-72
2022/02/04 16:18:25;;;;;;;19.33;2.70;;;;;;;;;;5022794;28;20046;-72
2022/02/04 16:21:16;;;;;;;14.68;2.58;;;;;;;;;;5021764;28;20038;-71
2022/02/04 16:26:46;;;;;;;11.93;3.17;;;;;;;;;;5021350;28;20077;-68
2022/02/04 16:28:59;;;;;;;20.40;2.90;;;;;;;;;;5006322;28;20469;-69
2022/02/04 16:31:27;;;;;;;22.08;3.60;;;;;;;;;;5030758;28;20048;-73
2022/02/04 16:33:55;;;;;;;19.02;2.95;;;;;;;;;;5031002;28;20073;-70
2022/02/04 16:36:26;;;;;;;11.50;2.28;;;;;;;;;;5030789;28;20033;-71
2022/02/04 16:38:55;;;;;;;11.48;2.47;;;;;;;;;;5013462;28;20132;-71
2022/02/04 16:41:30;;;;;;;15.77;2.90;;;;;;;;;;5010256;28;20038;-70
2022/02/04 16:43:58;;;;;;;19.55;2.78;;;;;;;;;;5026087;28;20037;-72
2022/02/04 16:46:28;;;;;;;20.52;3.20;;;;;;;;;;5030759;28;20044;-72
2022/02/04 16:48:55;;;;;;;22.42;3.47;;;;;;;;;;5031149;28;20059;-72
2022/02/04 16:51:24;;;;;;;21.98;3.28;;;;;;;;;;5031172;28;20041;-73
2022/02/04 16:53:51;;;;;;;17.75;2.58;;;;;;;;;;5012935;28;20061;-70
2022/02/04 16:56:19;;;;;;;17.70;2.20;;;;;;;;;;5029161;28;20045;-68
2022/02/04 16:58:47;;;;;;;11.57;2.15;;;;;;;;;;5020825;28;20120;-73
2022/02/04 17:01:17;;;;;;;16.90;3.13;;;;;;;;;;5023064;28;20045;-70
2022/02/04 17:03:45;;;;;;;16.48;2.95;;;;;;;;;;5010667;28;20442;-72
2022/02/04 17:06:12;;;;;;;19.50;3.33;;;;;;;;;;5033836;28;20056;-72
2022/02/04 17:08:48;;;;;;;15.18;2.80;;;;;;;;;;5035609;28;20049;-68
2022/02/04 17:11:33;;;;;;;24.80;3.65;;;;;;;;;;5020192;28;20086;-69
2022/02/04 17:14:00;;;;;;;20.42;2.70;;;;;;;;;;5035590;28;20073;-74
2022/02/04 17:16:28;;;;;;;23.20;5.05;;;;;;;;;;5032609;28;20038;-73
2022/02/04 17:18:57;;;;;;;40.63;12.68;;;;;;;;;;5017844;28;20045;-67
2022/02/04 17:21:25;;;;;;;22.60;4.68;;;;;;;;;;5035638;28;20444;-68
2022/02/04 17:23:54;;;;;;;19.83;3.25;;;;;;;;;;5035621;28;20045;-69
2022/02/04 17:26:22;;;;;;;19.73;3.67;;;;;;;;;;5035279;28;20041;-68
2022/02/04 17:28:51;;;;;;;16.80;3.40;;;;;;;;;;5034685;28;20041;-69
2022/02/04 17:31:18;;;;;;;28.63;3.13;;;;;;;;;;5035323;28;20072;-73
2022/02/04 17:33:46;;;;;;;16.73;2.95;;;;;;;;;;5034448;28;20037;-71
2022/02/04 17:36:15;;;;;;;19.85;3.35;;;;;;;;;;5024702;28;20516;-70
2022/02/04 17:38:43;;;;;;;21.73;3.50;;;;;;;;;;5023965;28;20037;-73
2022/02/04 17:41:12;;;;;;;14.32;3.45;;;;;;;;;;4992888;28;20128;-73
2022/02/04 17:43:42;;;;;;;24.50;4.03;;;;;;;;;;5032289;28;20052;-73
2022/02/04 17:46:10;;;;;;;25.75;4.03;;;;;;;;;;5034774;28;20049;-71
2022/02/04 17:51:32;;;;;;;16.23;3.67;;;;;;;;;;5026895;28;20512;-71
2022/02/04 17:54:04;;;;;;;23.02;4.03;;;;;;;;;;5033630;28;20071;-68
2022/02/04 17:56:48;;;;;;;26.85;3.65;;;;;;;;;;5012752;28;20128;-70
2022/02/04 18:07:42;;;;;;;23.98;3.13;;;;;;;;;;5029831;28;20041;-68
2022/02/04 18:10:09;;;;;;;24.85;3.45;;;;;;;;;;5029826;28;20042;-69
2022/02/04 18:12:39;;;;;;;19.38;3.63;;;;;;;;;;5025759;28;20096;-72
2022/02/04 18:15:06;;;;;;;15.75;3.25;;;;;;;;;;5007562;28;20497;-72
2022/02/04 18:17:34;;;;;;;20.65;3.75;;;;;;;;;;5006264;28;20126;-70
2022/02/04 18:20:02;;;;;;;16.33;2.58;;;;;;;;;;5023223;28;20044;-72
2022/02/04 18:22:30;;;;;;;29.17;3.65;;;;;;;;;;5024492;28;20048;-70
2022/02/04 18:24:58;;;;;;;18.65;3.28;;;;;;;;;;5007379;28;20054;-71
2022/02/04 18:27:25;;;;;;;14.70;3.63;;;;;;;;;;5023192;28;20044;-71
2022/02/04 18:29:55;;;;;;;15.65;2.70;;;;;;;;;;5023659;28;20404;-71
2022/02/04 18:32:24;;;;;;;10.70;2.65;;;;;;;;;;5024911;28;20493;-71
2022/02/04 18:34:53;;;;;;;21.10;3.60;;;;;;;;;;5023895;28;20038;-70
2022/02/04 18:37:30;;;;;;;22.08;3.63;;;;;;;;;;5022897;28;20092;-71
2022/02/04 18:45:22;;;;;;;18.60;3.13;;;;;;;;;;5023556;28;20046;-71
2022/02/04 18:48:40;;;;;;;19.80;3.25;;;;;;;;;;5012368;28;20179;-72
2022/02/04 18:51:41;;;;;;;26.15;4.00;;;;;;;;;;5005152;28;20038;-72
2022/02/04 18:59:28;;;;;;;15.57;3.60;;;;;;;;;;5033545;28;20033;-72
2022/02/04 19:01:56;;;;;;;23.27;3.67;;;;;;;;;;5033070;28;20417;-73
2022/02/04 19:04:35;;;;;;;23.58;4.22;;;;;;;;;;5033135;28;20056;-73
2022/02/04 19:07:09;;;;;;;20.88;3.20;;;;;;;;;;5033250;28;20092;-73
2022/02/04 19:09:38;;;;;;;20.42;3.90;;;;;;;;;;5022737;28;20056;-73
2022/02/04 19:12:12;;;;;;;16.15;3.35;;;;;;;;;;5030869;28;20037;-70
2022/02/04 19:14:58;;;;;;;15.43;3.00;;;;;;;;;;5022679;28;20048;-71
2022/02/04 19:17:34;;;;;;;17.67;3.25;;;;;;;;;;5023145;28;20054;-69
2022/02/04 19:20:10;;;;;;;21.20;3.50;;;;;;;;;;5005153;28;20145;-68
2022/02/04 19:22:38;;;;;;;23.02;3.50;;;;;;;;;;5018929;28;20045;-71
2022/02/04 19:25:11;;;;;;;22.73;4.00;;;;;;;;;;5016188;28;20037;-69
2022/02/04 19:27:40;;;;;;;22.33;3.70;;;;;;;;;;5023111;28;20156;-70
2022/02/04 19:30:10;;;;;;;20.52;3.83;;;;;;;;;;5028698;28;20049;-71
2022/02/04 19:32:39;;;;;;;22.42;3.45;;;;;;;;;;5030346;28;20042;-72
2022/02/04 19:35:08;;;;;;;23.05;4.70;;;;;;;;;;5030857;28;20489;-71
2022/02/04 19:37:37;;;;;;;19.05;3.83;;;;;;;;;;5031966;28;20040;-70
2022/02/04 19:40:06;;;;;;;18.80;3.83;;;;;;;;;;5032378;28;20047;-70
2022/02/04 19:42:37;;;;;;;24.38;3.35;;;;;;;;;;5015235;28;20056;-72
2022/02/04 19:45:13;;;;;;;20.35;3.45;;;;;;;;;;5033002;28;20412;-71
2022/02/04 19:50:19;;;;;;;20.92;2.97;;;;;;;;;;5032240;28;20662;-71
2022/02/04 20:25:34;;;;;;;22.60;3.55;;;;;;;;;;5032815;28;20041;-69
2022/02/04 20:28:07;;;;;;;24.92;3.75;;;;;;;;;;5032573;28;20046;-71
2022/02/04 20:30:35;;;;;;;19.45;3.00;;;;;;;;;;5014515;28;20046;-72
2022/02/04 20:33:03;;;;;;;26.25;4.38;;;;;;;;;;5015067;28;20038;-72
2022/02/04 20:35:32;;;;;;;30.83;4.25;;;;;;;;;;5032893;28;20381;-72
2022/02/04 20:38:00;;;;;;;27.90;3.67;;;;;;;;;;5032526;28;20108;-70
2022/02/04 20:40:29;;;;;;;22.88;3.53;;;;;;;;;;5033434;28;20049;-72
2022/02/04 20:42:57;;;;;;;17.80;4.32;;;;;;;;;;5019639;28;20033;-72
2022/02/04 20:45:25;;;;;;;23.17;3.30;;;;;;;;;;5036767;28;20129;-69
2022/02/04 20:47:57;;;;;;;15.30;3.88;;;;;;;;;;5036229;28;20052;-71
2022/02/04 20:50:26;;;;;;;22.98;3.08;;;;;;;;;;5018982;28;20038;-72
2022/02/04 20:52:53;;;;;;;18.73;3.22;;;;;;;;;;5036169;28;20041;-71
2022/02/04 20:55:22;;;;;;;22.42;2.53;;;;;;;;;;5036319;28;20037;-72
2022/02/04 20:57:54;;;;;;;25.25;3.47;;;;;;;;;;5036281;28;20041;-71
2022/02/04 21:00:30;;;;;;;25.27;2.97;;;;;;;;;;5036194;28;20056;-72
2022/02/04 21:02:59;;;;;;;27.67;3.30;;;;;;;;;;5018816;28;20049;-68
2022/02/04 21:05:49;;;;;;;23.50;3.00;;;;;;;;;;5036253;28;20053;-71
2022/02/04 21:13:59;;;;;;;26.67;2.80;;;;;;;;;;5036007;28;20065;-71
2022/02/04 21:16:30;;;;;;;23.10;2.92;;;;;;;;;;5036002;28;20117;-69
2022/02/04 21:18:58;;;;;;;25.25;3.47;;;;;;;;;;5035841;28;20059;-70
2022/02/04 21:21:26;;;;;;;14.20;2.70;;;;;;;;;;5036046;28;20030;-72
2022/02/04 21:23:54;;;;;;;25.67;3.03;;;;;;;;;;5036138;28;20038;-71
2022/02/04 21:26:22;;;;;;;23.40;2.65;;;;;;;;;;5035779;28;20128;-69
2022/02/04 21:28:51;;;;;;;27.52;3.50;;;;;;;;;;5035640;28;20104;-69
2022/02/04 21:31:19;;;;;;;22.80;2.90;;;;;;;;;;5018157;28;20041;-72
2022/02/04 21:39:08;;;;;;;15.18;2.65;;;;;;;;;;5035806;28;20053;-69
2022/02/04 21:41:36;;;;;;;21.95;2.80;;;;;;;;;;5035169;28;20412;-72
2022/02/04 21:44:04;;;;;;;28.08;3.10;;;;;;;;;;5035824;28;20393;-72
2022/02/04 21:46:32;;;;;;;31.25;4.15;;;;;;;;;;5035540;28;20112;-71
2022/02/04 21:49:01;;;;;;;24.27;3.97;;;;;;;;;;5035317;28;20404;-70
2022/02/04 21:51:29;;;;;;;21.15;3.10;;;;;;;;;;5034913;28;20382;-71
2022/02/04 21:53:57;;;;;;;20.90;3.08;;;;;;;;;;5035239;28;20041;-71
2022/02/04 21:56:24;;;;;;;23.00;3.42;;;;;;;;;;5017881;28;20038;-72
2022/02/04 21:58:51;;;;;;;20.00;3.15;;;;;;;;;;5035395;28;20389;-71
2022/02/04 22:01:19;;;;;;;27.35;3.33;;;;;;;;;;5035700;28;20049;-71
2022/02/04 22:03:47;;;;;;;25.05;2.92;;;;;;;;;;5041354;23;20053;-72
2022/02/04 22:06:14;;;;;;;24.75;3.42;;;;;;;;;;5054287;28;20384;-69
2022/02/04 22:08:52;;;;;;;31.27;3.40;;;;;;;;;;5055191;28;20117;-71
2022/02/04 22:24:23;;;;;;;22.23;3.15;;;;;;;;;;5054591;28;20048;-71
2022/02/04 22:26:51;;;;;;;28.10;3.63;;;;;;;;;;5054482;28;20497;-71
2022/02/04 22:29:21;;;;;;;28.10;3.80;;;;;;;;;;5029294;28;20053;-70
2022/02/04 22:31:49;;;;;;;21.35;3.55;;;;;;;;;;5014688;28;20412;-69
2022/02/04 22:50:02;;;;;;;19.05;3.83;;;;;;;;;;5014329;28;20038;-70
2022/02/04 22:53:31;;;;;;;20.88;3.40;;;;;;;;;;5014059;28;20388;-72
2022/02/04 22:57:53;;;;;;;21.35;3.67;;;;;;;;;;5014033;28;20038;-71
2022/02/04 23:00:51;;;;;;;21.33;3.13;;;;;;;;;;5014192;28;20042;-71
2022/02/04 23:03:31;;;;;;;19.75;3.00;;;;;;;;;;4997490;28;20053;-71
2022/02/04 23:06:01;;;;;;;19.75;3.13;;;;;;;;;;5030722;28;20049;-69
2022/02/04 23:08:32;;;;;;;21.58;3.17;;;;;;;;;;5019162;28;20042;-72